Aviation Digital Data Service (ADDS)

Output produced by METARs form (0249 UTC 06 July 2015)
found at http://www.aviationweather.gov/adds/metars/
 
KCMI 052335Z 0600/0624 16007KT P6SM SKC 
     FM060900 16004KT 4SM BR SKC 
     FM061400 18010KT P6SM SCT030 
     FM062000 19012G18KT P6SM SCT045